createdAt,value
2022-08-27T00:00:16.649Z,83.30
2022-08-27T00:02:43.862Z,83.25
2022-08-27T00:05:12.296Z,83.55
2022-08-27T00:07:39.850Z,83.72
2022-08-27T00:10:08.503Z,83.51
2022-08-27T00:12:36.434Z,83.47
2022-08-27T00:15:05.786Z,83.75
2022-08-27T00:17:33.492Z,83.92
2022-08-27T00:20:00.071Z,83.61
2022-08-27T00:22:26.646Z,83.49
2022-08-27T00:24:53.229Z,83.48
2022-08-27T00:27:19.846Z,83.56
2022-08-27T00:29:47.921Z,83.84
2022-08-27T00:32:15.755Z,84.10
2022-08-27T00:34:42.575Z,83.69
2022-08-27T00:37:09.176Z,83.50
2022-08-27T00:39:37.149Z,83.54
2022-08-27T00:42:07.154Z,83.42
2022-08-27T00:44:33.811Z,83.91
2022-08-27T00:47:05.434Z,84.30
2022-08-27T00:49:38.720Z,84.00
2022-08-27T00:52:11.984Z,84.26
2022-08-27T00:54:38.857Z,84.52
2022-08-27T00:57:06.496Z,84.16
2022-08-27T00:59:33.183Z,83.70
2022-08-27T01:02:18.937Z,83.62
2022-08-27T01:05:00.630Z,83.84
2022-08-27T01:07:31.907Z,84.02
2022-08-27T01:10:01.210Z,84.41
2022-08-27T01:12:30.318Z,84.45
2022-08-27T01:14:57.598Z,84.32
2022-08-27T01:17:25.072Z,84.27
2022-08-27T01:19:57.220Z,84.34
2022-08-27T01:22:48.949Z,84.83
2022-08-27T01:25:18.514Z,84.53
2022-08-27T01:27:46.087Z,84.65
2022-08-27T01:30:15.983Z,84.31
2022-08-27T01:32:43.439Z,84.71
2022-08-27T01:35:13.156Z,84.74
2022-08-27T01:37:41.898Z,84.61
2022-08-27T01:40:09.757Z,84.48
2022-08-27T01:42:43.262Z,84.97
2022-08-27T01:45:13.752Z,84.99
2022-08-27T01:47:41.204Z,84.75
2022-08-27T01:50:31.879Z,84.62
2022-08-27T01:53:03.562Z,84.40
2022-08-27T01:55:30.196Z,85.08
2022-08-27T01:57:57.080Z,85.06
2022-08-27T02:00:27.397Z,84.87
2022-08-27T02:02:54.584Z,84.64
2022-08-27T02:05:21.820Z,84.37
2022-08-27T02:07:48.669Z,84.36
2022-08-27T02:10:20.783Z,84.16
2022-08-27T02:12:47.723Z,84.08
2022-08-27T02:15:14.793Z,84.39
2022-08-27T02:17:41.789Z,84.21
2022-08-27T02:20:11.038Z,84.63
2022-08-27T02:22:38.717Z,84.47
2022-08-27T02:25:07.158Z,84.20
2022-08-27T02:27:37.153Z,84.03
2022-08-27T02:30:05.757Z,84.19
2022-08-27T02:32:32.956Z,84.24
2022-08-27T02:35:00.126Z,84.55
2022-08-27T02:37:27.756Z,84.18
2022-08-27T02:39:54.407Z,84.52
2022-08-27T02:42:21.184Z,84.47
2022-08-27T02:44:48.415Z,84.65
2022-08-27T02:47:16.786Z,85.02
2022-08-27T02:49:44.554Z,84.97
2022-08-27T02:52:11.290Z,85.39
2022-08-27T02:54:37.841Z,85.18
2022-08-27T02:57:05.496Z,85.43
2022-08-27T02:59:32.056Z,85.12
2022-08-27T03:01:58.714Z,85.11
2022-08-27T03:04:25.388Z,85.11
2022-08-27T03:06:51.940Z,85.13
2022-08-27T03:09:18.551Z,85.25
2022-08-27T03:11:45.131Z,85.28
2022-08-27T03:14:12.894Z,85.21
2022-08-27T03:16:41.075Z,85.11
2022-08-27T03:19:08.638Z,85.28
2022-08-27T03:21:35.692Z,85.20
2022-08-27T03:24:11.656Z,85.41
2022-08-27T03:26:41.279Z,85.19
2022-08-27T03:29:07.991Z,85.39
2022-08-27T03:31:34.901Z,85.47
2022-08-27T03:34:04.046Z,85.68
2022-08-27T03:36:31.507Z,85.71
2022-08-27T03:38:58.753Z,85.84
2022-08-27T03:41:54.133Z,85.70
2022-08-27T03:44:21.266Z,85.90
2022-08-27T03:46:49.368Z,85.72
2022-08-27T03:49:20.389Z,85.74
2022-08-27T03:51:48.851Z,85.70
2022-08-27T03:54:15.403Z,85.65
2022-08-27T03:56:42.008Z,85.52
2022-08-27T03:59:08.916Z,85.69
2022-08-27T04:01:36.020Z,86.29
2022-08-27T04:04:03.227Z,86.57
2022-08-27T04:06:29.812Z,86.56
2022-08-27T04:08:56.555Z,86.61
2022-08-27T04:11:23.445Z,86.31
2022-08-27T04:13:50.053Z,85.82
2022-08-27T04:16:16.954Z,86.03
2022-08-27T04:18:43.549Z,86.14
2022-08-27T04:21:12.673Z,86.41
2022-08-27T04:23:40.048Z,86.13
2022-08-27T04:26:08.244Z,86.31
2022-08-27T04:28:38.410Z,86.19
2022-08-27T04:31:12.875Z,86.77
2022-08-27T04:33:50.644Z,86.78
2022-08-27T04:36:18.202Z,87.30
2022-08-27T04:38:44.813Z,87.25
2022-08-27T04:41:21.412Z,87.38
2022-08-27T04:43:57.529Z,87.44
2022-08-27T04:46:29.642Z,87.76
2022-08-27T04:48:58.041Z,87.86
2022-08-27T04:51:25.770Z,87.93
2022-08-27T04:53:52.831Z,88.18
2022-08-27T04:56:22.737Z,88.38
2022-08-27T04:58:51.429Z,88.65
2022-08-27T05:01:20.502Z,88.97
2022-08-27T05:03:47.278Z,89.27
2022-08-27T05:06:13.879Z,89.19
2022-08-27T05:08:40.734Z,89.11
2022-08-27T05:11:10.505Z,89.36
2022-08-27T05:13:38.139Z,89.86
2022-08-27T05:16:08.255Z,90.16
2022-08-27T05:18:42.196Z,90.43
2022-08-27T05:21:24.151Z,91.05
2022-08-27T05:23:52.057Z,91.67
2022-08-27T05:26:18.642Z,92.10
2022-08-27T05:28:45.525Z,92.06
2022-08-27T05:31:14.292Z,92.30
2022-08-27T05:33:42.487Z,92.52
2022-08-27T05:36:19.815Z,92.47
2022-08-27T05:38:49.063Z,93.19
2022-08-27T05:41:17.768Z,93.26
2022-08-27T05:43:49.700Z,93.19
2022-08-27T05:46:19.075Z,93.59
2022-08-27T05:48:46.434Z,93.72
2022-08-27T05:51:16.202Z,94.11
2022-08-27T05:53:54.654Z,94.93
2022-08-27T05:56:21.992Z,95.28
2022-08-27T05:59:08.260Z,95.15
2022-08-27T06:01:42.418Z,95.61
2022-08-27T06:04:09.605Z,96.70
2022-08-27T06:06:40.999Z,97.50
2022-08-27T06:09:08.906Z,97.95
2022-08-27T06:11:35.687Z,99.06
2022-08-27T06:14:02.419Z,99.75
2022-08-27T06:16:29.080Z,99.65
2022-08-27T06:18:57.372Z,99.72
2022-08-27T06:21:25.024Z,100.00
2022-08-27T06:23:52.537Z,100.00
2022-08-27T06:26:20.807Z,100.00
2022-08-27T06:28:47.578Z,100.00
2022-08-27T06:31:18.363Z,100.00
2022-08-27T06:33:46.934Z,100.00
2022-08-27T06:36:16.421Z,100.00
2022-08-27T06:38:43.823Z,100.00
2022-08-27T06:41:23.140Z,100.00
2022-08-27T06:43:50.248Z,100.00
2022-08-27T06:46:20.348Z,100.00
2022-08-27T06:48:48.482Z,100.00
2022-08-27T06:51:24.532Z,100.00
2022-08-27T06:53:52.748Z,100.00
2022-08-27T06:56:19.904Z,100.00
2022-08-27T06:58:46.564Z,100.00
2022-08-27T07:01:19.020Z,100.00
2022-08-27T07:03:46.097Z,99.20
2022-08-27T07:06:16.612Z,97.89
2022-08-27T07:08:44.852Z,97.11
2022-08-27T07:11:20.878Z,96.41
2022-08-27T07:13:48.984Z,95.26
2022-08-27T07:16:23.286Z,95.21
2022-08-27T07:18:52.523Z,94.49
2022-08-27T07:21:22.435Z,94.14
2022-08-27T07:23:52.045Z,94.61
2022-08-27T07:26:19.944Z,95.52
2022-08-27T07:28:47.403Z,94.68
2022-08-27T07:31:17.175Z,94.76
2022-08-27T07:33:50.625Z,95.52
2022-08-27T07:36:19.373Z,94.42
2022-08-27T07:38:56.629Z,91.67
2022-08-27T07:41:30.529Z,88.42
2022-08-27T07:44:34.528Z,87.10
2022-08-27T07:47:02.502Z,86.32
2022-08-27T07:49:30.121Z,84.78
2022-08-27T07:51:57.064Z,84.10
2022-08-27T07:54:24.079Z,82.92
2022-08-27T07:56:55.350Z,82.34
2022-08-27T07:59:24.153Z,80.26
2022-08-27T08:01:51.618Z,78.70
2022-08-27T08:04:20.292Z,77.87
2022-08-27T08:06:47.141Z,77.93
2022-08-27T08:09:13.701Z,77.38
2022-08-27T08:11:41.671Z,77.44
2022-08-27T08:14:08.301Z,77.56
2022-08-27T08:16:34.950Z,76.99
2022-08-27T08:19:02.131Z,76.70
2022-08-27T08:21:29.066Z,76.66
2022-08-27T08:23:55.775Z,76.12
2022-08-27T08:26:23.251Z,76.33
2022-08-27T08:28:49.858Z,76.96
2022-08-27T08:31:16.599Z,74.95
2022-08-27T08:33:43.265Z,74.73
2022-08-27T08:36:13.516Z,72.57
2022-08-27T08:38:41.355Z,71.64
2022-08-27T08:41:25.791Z,71.57
2022-08-27T08:43:52.500Z,70.26
2022-08-27T08:46:34.654Z,66.09
2022-08-27T08:49:06.232Z,66.25
2022-08-27T08:51:40.603Z,65.77
2022-08-27T08:54:14.385Z,65.26
2022-08-27T08:56:45.930Z,64.96
2022-08-27T08:59:25.019Z,66.00
2022-08-27T09:01:52.119Z,62.24
2022-08-27T09:04:18.777Z,61.04
2022-08-27T09:06:56.695Z,60.61
2022-08-27T09:09:36.052Z,61.52
2022-08-27T09:12:19.265Z,62.13
2022-08-27T09:14:48.518Z,62.18
2022-08-27T09:17:15.125Z,62.56
2022-08-27T09:19:43.025Z,57.61
2022-08-27T09:22:30.202Z,52.28
2022-08-27T09:25:11.742Z,52.69
2022-08-27T09:27:41.755Z,53.15
2022-08-27T09:30:12.247Z,50.56
2022-08-27T09:32:40.217Z,49.80
2022-08-27T09:35:11.298Z,47.23
2022-08-27T09:37:48.133Z,46.35
2022-08-27T09:40:29.219Z,45.79
2022-08-27T09:43:07.871Z,47.18
2022-08-27T09:45:35.417Z,47.07
2022-08-27T09:48:07.590Z,45.58
2022-08-27T09:50:45.741Z,45.37
2022-08-27T09:53:25.449Z,45.64
2022-08-27T09:56:01.327Z,45.09
2022-08-27T09:58:32.011Z,47.33
2022-08-27T10:01:16.306Z,48.19
2022-08-27T10:03:43.594Z,48.82
2022-08-27T10:06:11.385Z,48.64
2022-08-27T10:08:48.695Z,49.28
2022-08-27T10:11:23.744Z,48.40
2022-08-27T10:14:03.086Z,48.54
2022-08-27T10:17:00.798Z,46.38
2022-08-27T10:20:03.763Z,46.78
2022-08-27T10:22:36.023Z,48.60
2022-08-27T10:25:17.075Z,48.75
2022-08-27T10:28:20.465Z,48.68
2022-08-27T10:31:08.405Z,48.92
2022-08-27T10:34:03.877Z,49.16
2022-08-27T10:36:54.811Z,47.28
2022-08-27T10:39:41.960Z,49.62
2022-08-27T10:42:11.557Z,48.05
2022-08-27T10:45:04.320Z,47.16
2022-08-27T10:47:49.248Z,48.59
2022-08-27T10:50:30.605Z,48.28
2022-08-27T10:53:11.715Z,48.14
2022-08-27T10:55:45.964Z,46.90
2022-08-27T10:58:21.543Z,47.34
2022-08-27T11:01:03.815Z,48.15
2022-08-27T11:03:39.623Z,46.38
2022-08-27T11:06:24.908Z,45.07
2022-08-27T11:08:58.613Z,44.99
2022-08-27T11:12:13.220Z,44.91
2022-08-27T11:14:38.935Z,44.78
2022-08-27T11:17:13.398Z,45.94
2022-08-27T11:20:03.887Z,45.95
2022-08-27T11:22:37.478Z,46.99
2022-08-27T11:25:22.394Z,46.93
2022-08-27T11:27:54.338Z,45.76
2022-08-27T11:30:30.083Z,45.19
2022-08-27T11:33:15.447Z,43.32
2022-08-27T11:35:56.964Z,43.09
2022-08-27T11:38:43.091Z,45.17
2022-08-27T11:41:45.226Z,42.41
2022-08-27T11:44:14.753Z,41.43
2022-08-27T11:46:56.679Z,43.64
2022-08-27T11:49:43.472Z,42.49
2022-08-27T11:52:11.113Z,41.82
2022-08-27T11:54:51.017Z,41.27
2022-08-27T11:57:30.445Z,43.11
2022-08-27T11:59:57.407Z,42.99
2022-08-27T12:02:29.527Z,43.30
2022-08-27T12:05:26.497Z,42.25
2022-08-27T12:07:53.615Z,42.45
2022-08-27T12:10:38.390Z,41.35
2022-08-27T12:13:17.581Z,40.31
2022-08-27T12:16:07.947Z,41.14
2022-08-27T12:19:19.140Z,41.00
2022-08-27T12:22:19.177Z,41.23
2022-08-27T12:24:50.612Z,41.12
2022-08-27T12:27:24.516Z,40.31
2022-08-27T12:29:58.363Z,40.73
2022-08-27T12:32:44.382Z,41.43
2022-08-27T12:35:19.259Z,42.11
2022-08-27T12:38:07.222Z,42.29
2022-08-27T12:40:54.875Z,42.09
2022-08-27T12:43:30.048Z,42.60
2022-08-27T12:46:08.509Z,42.46
2022-08-27T12:48:42.563Z,43.08
2022-08-27T12:51:32.915Z,43.29
2022-08-27T12:54:33.272Z,42.97
2022-08-27T12:57:27.755Z,44.63
2022-08-27T13:00:05.086Z,44.97
2022-08-27T13:02:37.448Z,43.99
2022-08-27T13:05:10.471Z,43.04
2022-08-27T13:07:43.392Z,41.80
2022-08-27T13:10:16.660Z,42.22
2022-08-27T13:12:45.441Z,42.68
2022-08-27T13:15:16.094Z,43.52
2022-08-27T13:17:45.694Z,41.79
2022-08-27T13:20:20.647Z,43.30
2022-08-27T13:22:47.783Z,43.49
2022-08-27T13:25:23.609Z,43.47
2022-08-27T13:27:57.226Z,43.22
2022-08-27T13:30:35.587Z,43.23
2022-08-27T13:33:06.195Z,44.97
2022-08-27T13:35:33.451Z,44.54
2022-08-27T13:38:03.635Z,43.31
2022-08-27T13:40:37.092Z,42.99
2022-08-27T13:43:12.346Z,42.29
2022-08-27T13:45:41.744Z,43.11
2022-08-27T13:48:10.511Z,43.42
2022-08-27T13:50:37.372Z,43.43
2022-08-27T13:53:27.609Z,43.73
2022-08-27T13:55:56.592Z,43.84
2022-08-27T13:58:32.185Z,44.63
2022-08-27T14:01:16.431Z,42.71
2022-08-27T14:03:49.980Z,42.84
2022-08-27T14:06:47.767Z,43.13
2022-08-27T14:09:28.781Z,45.56
2022-08-27T14:12:05.107Z,45.34
2022-08-27T14:14:39.014Z,44.34
2022-08-27T14:17:08.870Z,45.23
2022-08-27T14:19:37.052Z,43.74
2022-08-27T14:22:04.257Z,44.63
2022-08-27T14:24:30.879Z,45.55
2022-08-27T14:27:06.076Z,44.81
2022-08-27T14:29:32.658Z,45.05
2022-08-27T14:31:59.223Z,47.50
2022-08-27T14:34:25.790Z,50.21
2022-08-27T14:36:54.830Z,48.54
2022-08-27T14:39:26.088Z,47.55
2022-08-27T14:41:53.357Z,46.28
2022-08-27T14:44:21.876Z,46.22
2022-08-27T14:46:49.022Z,45.06
2022-08-27T14:49:27.737Z,46.44
2022-08-27T14:51:54.424Z,44.76
2022-08-27T14:54:21.025Z,44.05
2022-08-27T14:56:47.684Z,44.57
2022-08-27T14:59:14.319Z,46.50
2022-08-27T15:01:41.066Z,45.65
2022-08-27T15:04:07.829Z,45.72
2022-08-27T15:06:34.586Z,43.73
2022-08-27T15:09:01.616Z,42.58
2022-08-27T15:11:31.447Z,43.26
2022-08-27T15:14:00.196Z,42.95
2022-08-27T15:16:28.281Z,42.76
2022-08-27T15:19:00.873Z,42.84
2022-08-27T15:21:30.626Z,42.92
2022-08-27T15:24:01.318Z,43.29
2022-08-27T15:26:28.543Z,42.79
2022-08-27T15:28:55.334Z,43.35
2022-08-27T15:31:22.312Z,43.46
2022-08-27T15:33:49.362Z,42.01
2022-08-27T15:36:15.976Z,42.79
2022-08-27T15:38:42.660Z,42.23
2022-08-27T15:41:10.393Z,42.82
2022-08-27T15:43:38.888Z,43.00
2022-08-27T15:46:05.867Z,43.03
2022-08-27T15:48:32.741Z,42.71
2022-08-27T15:51:04.927Z,42.00
2022-08-27T15:53:31.802Z,42.38
2022-08-27T15:55:58.587Z,42.61
2022-08-27T15:58:29.014Z,44.01
2022-08-27T16:01:01.435Z,43.84
2022-08-27T16:03:35.466Z,45.75
2022-08-27T16:06:04.757Z,48.13
2022-08-27T16:08:36.604Z,49.33
2022-08-27T16:11:03.928Z,49.80
2022-08-27T16:13:31.200Z,50.93
2022-08-27T16:15:58.096Z,52.46
2022-08-27T16:18:30.684Z,53.78
2022-08-27T16:20:59.787Z,54.94
2022-08-27T16:23:27.151Z,55.97
2022-08-27T16:25:54.967Z,57.09
2022-08-27T16:28:22.068Z,57.14
2022-08-27T16:30:50.116Z,57.21
2022-08-27T16:33:16.720Z,56.91
2022-08-27T16:35:43.394Z,56.27
2022-08-27T16:38:11.774Z,56.75
2022-08-27T16:40:48.846Z,56.24
2022-08-27T16:43:24.587Z,56.82
2022-08-27T16:45:53.812Z,57.61
2022-08-27T16:48:39.954Z,58.51
2022-08-27T16:51:17.496Z,59.07
2022-08-27T16:53:45.172Z,59.77
2022-08-27T16:56:11.870Z,60.09
2022-08-27T16:58:40.525Z,60.46
2022-08-27T17:01:10.641Z,60.52
2022-08-27T17:04:07.685Z,61.15
2022-08-27T17:06:33.940Z,61.08
2022-08-27T17:09:04.792Z,61.62
2022-08-27T17:11:34.626Z,62.23
2022-08-27T17:14:02.463Z,62.23
2022-08-27T17:16:31.801Z,62.71
2022-08-27T17:19:01.184Z,63.35
2022-08-27T17:21:30.126Z,63.50
2022-08-27T17:23:59.429Z,63.46
2022-08-27T17:26:26.230Z,63.74
2022-08-27T17:28:53.038Z,64.19
2022-08-27T17:31:27.980Z,64.49
2022-08-27T17:33:58.131Z,64.55
2022-08-27T17:36:28.705Z,64.82
2022-08-27T17:38:55.491Z,65.01
2022-08-27T17:41:25.576Z,65.15
2022-08-27T17:43:53.125Z,65.73
2022-08-27T17:46:19.784Z,66.05
2022-08-27T17:48:46.346Z,66.52
2022-08-27T17:51:13.424Z,66.75
2022-08-27T17:53:47.280Z,66.77
2022-08-27T17:56:19.140Z,67.12
2022-08-27T17:58:46.913Z,67.10
2022-08-27T18:01:15.992Z,67.26
2022-08-27T18:03:44.912Z,67.56
2022-08-27T18:06:15.696Z,67.98
2022-08-27T18:08:42.381Z,68.00
2022-08-27T18:11:11.262Z,68.16
2022-08-27T18:13:38.030Z,68.67
2022-08-27T18:16:05.609Z,68.49
2022-08-27T18:18:34.051Z,69.17
2022-08-27T18:21:01.356Z,69.58
2022-08-27T18:23:28.020Z,69.73
2022-08-27T18:25:55.769Z,69.77
2022-08-27T18:28:23.112Z,70.32
2022-08-27T18:30:50.669Z,70.19
2022-08-27T18:33:17.414Z,70.75
2022-08-27T18:35:44.154Z,70.74
2022-08-27T18:38:11.488Z,71.12
2022-08-27T18:40:43.498Z,71.04
2022-08-27T18:43:10.874Z,71.28
2022-08-27T18:45:37.963Z,71.80
2022-08-27T18:48:12.806Z,71.88
2022-08-27T18:50:44.209Z,72.11
2022-08-27T18:53:10.998Z,72.18
2022-08-27T18:55:37.604Z,72.06
2022-08-27T18:58:04.367Z,72.67
2022-08-27T19:00:31.008Z,73.15
2022-08-27T19:02:57.628Z,73.20
2022-08-27T19:05:26.750Z,73.50
2022-08-27T19:07:53.980Z,73.87
2022-08-27T19:10:20.910Z,73.88
2022-08-27T19:12:47.885Z,74.08
2022-08-27T19:15:15.320Z,74.38
2022-08-27T19:17:45.552Z,74.28
2022-08-27T19:20:12.184Z,74.55
2022-08-27T19:22:38.957Z,74.52
2022-08-27T19:25:07.541Z,74.56
2022-08-27T19:27:35.704Z,74.96
2022-08-27T19:30:02.784Z,75.37
2022-08-27T19:32:30.204Z,75.43
2022-08-27T19:34:56.790Z,75.79
2022-08-27T19:37:27.277Z,75.75
2022-08-27T19:39:53.883Z,76.29
2022-08-27T19:42:20.531Z,76.77
2022-08-27T19:44:47.513Z,76.73
2022-08-27T19:47:16.896Z,76.83
2022-08-27T19:49:49.801Z,77.36
2022-08-27T19:52:16.414Z,77.49
2022-08-27T19:55:03.330Z,77.41
2022-08-27T19:57:29.631Z,77.56
2022-08-27T19:59:56.193Z,77.72
2022-08-27T20:02:23.576Z,77.77
2022-08-27T20:05:14.188Z,78.29
2022-08-27T20:07:36.871Z,78.43
2022-08-27T20:10:08.506Z,78.12
2022-08-27T20:12:35.455Z,78.17
2022-08-27T20:15:01.986Z,78.39
2022-08-27T20:17:28.606Z,78.09
2022-08-27T20:19:57.058Z,78.30
2022-08-27T20:22:23.746Z,78.68
2022-08-27T20:24:50.378Z,78.48
2022-08-27T20:27:16.923Z,78.87
2022-08-27T20:29:43.470Z,79.18
2022-08-27T20:32:10.072Z,79.47
2022-08-27T20:34:37.530Z,79.20
2022-08-27T20:37:07.937Z,78.98
2022-08-27T20:39:34.574Z,79.50
2022-08-27T20:42:01.151Z,80.06
2022-08-27T20:44:27.734Z,79.89
2022-08-27T20:46:57.884Z,79.95
2022-08-27T20:49:24.438Z,79.86
2022-08-27T20:52:03.133Z,79.92
2022-08-27T20:54:31.650Z,79.79
2022-08-27T20:56:58.649Z,79.76
2022-08-27T20:59:44.006Z,80.07
2022-08-27T21:02:13.075Z,80.24
2022-08-27T21:04:43.647Z,80.33
2022-08-27T21:07:10.238Z,80.22
2022-08-27T21:09:51.878Z,80.45
2022-08-27T21:12:25.468Z,80.61
2022-08-27T21:14:55.747Z,80.54
2022-08-27T21:17:24.882Z,80.94
2022-08-27T21:19:52.545Z,81.37
2022-08-27T21:22:20.042Z,81.32
2022-08-27T21:24:47.585Z,81.39
2022-08-27T21:27:15.451Z,81.40
2022-08-27T21:29:44.554Z,81.52
2022-08-27T21:32:11.367Z,81.60
2022-08-27T21:34:37.923Z,81.63
2022-08-27T21:37:04.902Z,81.90
2022-08-27T21:39:32.859Z,81.88
2022-08-27T21:42:00.786Z,81.94
2022-08-27T21:44:28.063Z,81.88
2022-08-27T21:46:54.811Z,82.15
2022-08-27T21:49:21.401Z,82.22
2022-08-27T21:51:48.036Z,82.08
2022-08-27T21:54:14.910Z,82.15
2022-08-27T21:56:43.000Z,81.87
2022-08-27T21:59:09.666Z,82.44
2022-08-27T22:01:36.870Z,82.25
2022-08-27T22:04:03.870Z,82.42
2022-08-27T22:06:30.544Z,82.63
2022-08-27T22:08:57.139Z,82.96
2022-08-27T22:11:24.635Z,83.11
2022-08-27T22:13:52.298Z,83.22
2022-08-27T22:16:19.483Z,83.21
2022-08-27T22:18:46.226Z,83.39
2022-08-27T22:21:13.431Z,83.45
2022-08-27T22:23:44.799Z,83.53
2022-08-27T22:26:12.002Z,83.17
2022-08-27T22:28:38.627Z,83.32
2022-08-27T22:31:07.285Z,83.42
2022-08-27T22:33:34.214Z,83.61
2022-08-27T22:36:01.234Z,83.72
2022-08-27T22:38:27.896Z,83.92
2022-08-27T22:40:55.103Z,84.50
2022-08-27T22:43:21.723Z,84.43
2022-08-27T22:45:48.269Z,84.08
2022-08-27T22:48:14.889Z,84.42
2022-08-27T22:50:41.610Z,84.66
2022-08-27T22:53:08.950Z,85.00
2022-08-27T22:55:36.610Z,84.97
2022-08-27T22:58:03.769Z,84.99
2022-08-27T23:00:34.572Z,84.87
2022-08-27T23:03:05.572Z,84.94
2022-08-27T23:05:40.402Z,84.98
2022-08-27T23:08:11.060Z,85.11
2022-08-27T23:10:38.230Z,85.22
2022-08-27T23:13:06.931Z,85.07
2022-08-27T23:15:33.984Z,84.96
2022-08-27T23:18:01.665Z,85.07
2022-08-27T23:20:28.854Z,85.01
2022-08-27T23:22:55.974Z,85.06
2022-08-27T23:25:43.406Z,84.95
2022-08-27T23:28:14.443Z,84.91
2022-08-27T23:30:41.715Z,85.01
2022-08-27T23:33:08.246Z,85.56
2022-08-27T23:35:35.341Z,85.88
2022-08-27T23:38:01.890Z,86.08
2022-08-27T23:40:28.655Z,85.33
2022-08-27T23:42:55.262Z,85.44
2022-08-27T23:45:24.645Z,85.20
2022-08-27T23:47:51.683Z,85.09
2022-08-27T23:50:18.419Z,85.06
2022-08-27T23:52:45.029Z,85.37
2022-08-27T23:55:11.996Z,85.33
2022-08-27T23:57:39.812Z,85.59
